Flight Track Log - Related Links

Times and Time Zones

All times are in EDT time to prevent confusion due to time zone crossing. See the AWI3688 flight status page for this flight to view local times or setup timezone preferences in your user account.

Time Position Orientation Groundspeed Altitude Reporting Facility
EDT Latitude Longitude Course Direction KTS MPH feet Rate Location/Type
Sat 03:14:41 PM 42.7278 -73.8136 223° Southwest 148 170 1,700  Level Boston Center
Sat 03:14:59 PM 42.7214 -73.8250 233° Southwest 179 206 2,200 2,051 Climbing Boston Center
Sat 03:16:00 PM 42.7078 -73.9094 258° West 247 284 4,400 2,732 Climbing Boston Center
Sat 03:16:51 PM 42.7128 -73.9886 275° West 256 295 7,300 3,027 Climbing Boston Center
Sat 03:17:00 PM 42.6939 -74.3590 220° Southwest  Level FlightAware Approximate
Sat 03:17:51 PM 42.7219 -74.0850 277° West 256 295 10,000  Level Boston Center
Sat 03:18:00 PM 42.6224 -74.4394 220° Southwest  Level FlightAware Approximate
Sat 03:18:51 PM 42.7311 -74.1756 278° West 261 300 12,600  Level Boston Center
Sat 03:19:00 PM 42.5524 -74.5220 223° Southwest  Level FlightAware Approximate
Sat 03:20:03 PM 42.7394 -74.3031 275° West 280 322 15,000  Level Boston Center
Sat 03:21:03 PM 42.6775 -74.3944 227° Southwest 280 322 16,000 500 Climbing Boston Center
Sat 03:22:03 PM 42.6158 -74.4603 218° Southwest 300 345 16,000  Level Boston Center
Sat 03:23:03 PM 42.5414 -74.5450 220° Southwest 321 369 16,000  Level Boston Center
Sat 03:24:03 PM 42.4794 -74.6161 220° Southwest 327 376 16,000  Level Boston Center
Sat 03:25:03 PM 42.4028 -74.7008 219° Southwest 327 376 16,000 50 Level Boston Center
Sat 03:26:03 PM 42.3431 -74.7689 220° Southwest 327 376 16,100  Climbing Boston Center
Sat 03:27:03 PM 42.2703 -74.8586 222° Southwest 327 376 16,000 -50 Descending Boston Center
Sat 03:28:03 PM 42.2019 -74.9344 219° Southwest 321 369 16,000  Level Boston Center
Sat 03:30:17 PM 42.0389 -75.0769 213° Southwest 316 364 16,000  Level New York Center
Sat 03:31:17 PM 41.9617 -75.1386 211° Southwest 321 369 16,000  Level New York Center
Sat 03:32:17 PM 41.8867 -75.2006 212° Southwest 321 369 16,000  Level New York Center
Sat 03:33:19 PM 41.8178 -75.2572 212° Southwest 329 379 16,000  Level New York Center
Sat 03:34:19 PM 41.7406 -75.3161 210° Southwest 324 373 16,000 -356 Level New York Center
Sat 03:35:17 PM 41.6567 -75.3853 212° Southwest 324 373 15,300 -908 Descending New York Center
Sat 03:36:18 PM 41.5836 -75.4439 211° Southwest 324 373 14,200 -1,150 Descending New York Center
Sat 03:37:17 PM 41.5083 -75.5025 210° Southwest 324 373 13,000 -1,100 Descending New York Center
Sat 03:38:18 PM 41.4417 -75.5558 211° Southwest 324 373 12,000 -496 Descending New York Center
Sat 03:39:18 PM 41.3619 -75.6192 211° Southwest 314 361 12,000  Level New York Center
Sat 03:40:19 PM 41.2975 -75.6728 212° Southwest 314 361 12,000  Level New York Center
Sat 03:41:19 PM 41.2008 -75.6878 187° South 307 353 12,000  Level New York Center
Sat 03:42:18 PM 41.1114 -75.6894 181° South 324 373 12,000  Level New York Center
Sat 03:43:19 PM 41.0300 -75.6892 180° South 332 382 12,000  Level New York Center
Sat 03:44:20 PM 40.9406 -75.6881 179° South 327 376 12,000  Level New York Center
Sat 03:45:18 PM 40.8447 -75.6894 181° South 322 371 12,000  Level New York Center
Sat 03:46:17 PM 40.7531 -75.6856 178° South 322 371 12,000  Level New York Center
Sat 03:47:17 PM 40.6656 -75.6875 181° South 327 376 12,000 -49 Level New York Center
Sat 03:48:19 PM 40.5847 -75.6733 172° South 332 382 11,900 -541 Descending New York Center
Sat 03:49:19 PM 40.5242 -75.5736 129° Southeast 322 371 10,900 -950 Descending New York Center
Sat 03:50:19 PM 40.4642 -75.4603 125° Southeast 340 391 10,000 -857 Descending New York Center
Sat 03:51:18 PM 40.4017 -75.4069 147° Southeast 307 353 9,200 -1,008 Descending New York Center
Sat 03:52:18 PM 40.3367 -75.3672 155° Southeast 278 320 8,000 -800 Descending New York Center
Sat 03:53:18 PM 40.2667 -75.3408 164° South 244 281 7,600 -744 Descending New York Center
Sat 03:54:19 PM 40.2089 -75.3314 173° South 233 268 6,500 -807 Descending New York Center
Sat 03:55:17 PM 40.1428 -75.3164 170° South 233 268 6,000 -252 Descending New York Center
Sat 03:56:18 PM 40.0867 -75.3072 173° South 233 268 6,000  Level New York Center
Sat 03:57:10 PM 40.0500 -75.2500 130° Southeast 237 273 6,000  Level Philadelphia TRACON
Sat 03:58:16 PM 40.0167 -75.1833 123° Southeast 196 226 6,000  Level Philadelphia TRACON
Sat 03:59:16 PM 39.9833 -75.1333 131° Southeast 221 254 6,000 -250 Level Philadelphia TRACON
Sat 04:00:16 PM 40.0000 -75.0667 72° East 217 250 5,500 -789 Descending Philadelphia TRACON
Sat 04:01:10 PM 40.0167 -75.0000 72° East 215 247 4,500 -789 Descending Philadelphia TRACON
Sat 04:02:10 PM 40.0333 -74.9167 75° East 207 238 4,000 -238 Descending Philadelphia TRACON
Sat 04:03:16 PM 40.0000 -74.8667 131° Southeast 172 198 4,000  Level Philadelphia TRACON
Sat 04:04:10 PM 39.9667 -74.8833 201° Southwest 171 197 4,000 -150 Level Philadelphia TRACON
Sat 04:05:16 PM 39.9333 -74.9333 229° Southwest 167 192 3,700 -365 Descending Philadelphia TRACON
Sat 04:06:05 PM 39.9333 -74.9667 270° West 169 194 3,300 -385 Descending Philadelphia TRACON
Sat 04:07:05 PM 39.9167 -75.0333 252° West 166 191 3,000 -300 Descending Philadelphia TRACON

Login

Don't have an account? Register now (free) for customized features, flight alerts, and more!